createdAt,value
2017-04-08T00:00:36.881Z,1018.54
2017-04-08T00:01:17.533Z,1018.54
2017-04-08T00:01:58.179Z,1018.53
2017-04-08T00:02:40.888Z,1018.52
2017-04-08T00:03:22.567Z,1018.55
2017-04-08T00:04:03.216Z,1018.52
2017-04-08T00:04:43.867Z,1018.52
2017-04-08T00:05:25.545Z,1018.52
2017-04-08T00:06:06.201Z,1018.51
2017-04-08T00:06:47.874Z,1018.52
2017-04-08T00:07:28.644Z,1018.53
2017-04-08T00:08:09.283Z,1018.55
2017-04-08T00:08:50.960Z,1018.53
2017-04-08T00:09:32.641Z,1018.52
2017-04-08T00:10:13.288Z,1018.56
2017-04-08T00:10:53.947Z,1018.54
2017-04-08T00:11:34.716Z,1018.53
2017-04-08T00:12:15.352Z,1018.57
2017-04-08T00:12:57.038Z,1018.54
2017-04-08T00:13:37.695Z,1018.52
2017-04-08T00:14:18.338Z,1018.54
2017-04-08T00:14:58.996Z,1018.52
2017-04-08T00:15:39.752Z,1018.53
2017-04-08T00:16:20.407Z,1018.52
2017-04-08T00:17:01.149Z,1018.5
2017-04-08T00:17:41.804Z,1018.53
2017-04-08T00:18:23.476Z,1018.51
2017-04-08T00:19:06.178Z,1018.57
2017-04-08T00:19:46.758Z,1018.5
2017-04-08T00:20:27.498Z,1018.51
2017-04-08T00:21:08.148Z,1018.5
2017-04-08T00:21:48.792Z,1018.5
2017-04-08T00:22:29.370Z,1018.53
2017-04-08T00:23:11.083Z,1018.49
2017-04-08T00:23:51.779Z,1018.56
2017-04-08T00:24:32.938Z,1018.54
2017-04-08T00:25:13.569Z,1018.52
2017-04-08T00:25:55.222Z,1018.5
2017-04-08T00:26:35.931Z,1018.53
2017-04-08T00:27:17.599Z,1018.49
2017-04-08T00:27:58.174Z,1018.5
2017-04-08T00:28:38.847Z,1018.53
2017-04-08T00:29:19.561Z,1018.47
2017-04-08T00:30:00.211Z,1018.5
2017-04-08T00:30:40.968Z,1018.49
2017-04-08T00:31:21.628Z,1018.48
2017-04-08T00:32:02.276Z,1018.5
2017-04-08T00:32:42.926Z,1018.47
2017-04-08T00:33:24.609Z,1018.53
2017-04-08T00:34:06.288Z,1018.48
2017-04-08T00:34:46.866Z,1018.46
2017-04-08T00:35:27.591Z,1018.51
2017-04-08T00:36:09.268Z,1018.47
2017-04-08T00:36:49.830Z,1018.44
2017-04-08T00:37:30.464Z,1018.46
2017-04-08T00:38:11.119Z,1018.49
2017-04-08T00:38:51.685Z,1018.45
2017-04-08T00:39:32.322Z,1018.45
2017-04-08T00:40:14.106Z,1018.39
2017-04-08T00:40:54.668Z,1018.42
2017-04-08T00:41:36.394Z,1018.41
2017-04-08T00:42:17.099Z,1018.44
2017-04-08T00:42:57.848Z,1018.37
2017-04-08T00:43:38.423Z,1018.42
2017-04-08T00:44:19.133Z,1018.35
2017-04-08T00:45:01.846Z,1018.39
2017-04-08T00:45:42.421Z,1018.34
2017-04-08T00:46:24.077Z,1018.35
2017-04-08T00:47:04.732Z,1018.34
2017-04-08T00:47:45.315Z,1018.35
2017-04-08T00:48:26.049Z,1018.32
2017-04-08T00:49:07.731Z,1018.3
2017-04-08T00:49:48.317Z,1018.33
2017-04-08T00:50:30.049Z,1018.37
2017-04-08T00:51:11.722Z,1018.35
2017-04-08T00:51:52.303Z,1018.32
2017-04-08T00:52:33.959Z,1018.33
2017-04-08T00:53:14.607Z,1018.36
2017-04-08T00:53:55.216Z,1018.37
2017-04-08T00:54:35.906Z,1018.35
2017-04-08T00:55:16.558Z,1018.32
2017-04-08T00:55:57.130Z,1018.32
2017-04-08T00:56:37.859Z,1018.36
2017-04-08T00:57:18.517Z,1018.37
2017-04-08T00:57:59.095Z,1018.35
2017-04-08T00:58:40.755Z,1018.37
2017-04-08T00:59:23.446Z,1018.32
2017-04-08T01:00:04.101Z,1018.33
2017-04-08T01:00:44.764Z,1018.35
2017-04-08T01:01:25.437Z,1018.36
2017-04-08T01:02:06.060Z,1018.36
2017-04-08T01:02:46.713Z,1018.34
2017-04-08T01:03:27.364Z,1018.37
2017-04-08T01:04:12.729Z,1018.39
2017-04-08T01:04:53.381Z,1018.34
2017-04-08T01:05:34.039Z,1018.36
2017-04-08T01:06:14.686Z,1018.32
2017-04-08T01:06:56.362Z,1018.32
2017-04-08T01:07:42.648Z,1018.32
2017-04-08T01:08:23.304Z,1018.32
2017-04-08T01:09:03.952Z,1018.29
2017-04-08T01:09:44.557Z,1018.31
2017-04-08T01:10:25.250Z,1018.31
2017-04-08T01:11:07.969Z,1018.3
2017-04-08T01:11:48.537Z,1018.27
2017-04-08T01:12:29.161Z,1018.3
2017-04-08T01:13:11.866Z,1018.29
2017-04-08T01:13:52.427Z,1018.34
2017-04-08T01:14:34.100Z,1018.3
2017-04-08T01:15:14.753Z,1018.32
2017-04-08T01:15:56.427Z,1018.33
2017-04-08T01:16:37.077Z,1018.29
2017-04-08T01:17:17.850Z,1018.31
2017-04-08T01:17:58.586Z,1018.33
2017-04-08T01:18:41.366Z,1018.3
2017-04-08T01:19:22.042Z,1018.3
2017-04-08T01:20:02.620Z,1018.3
2017-04-08T01:20:43.293Z,1018.26
2017-04-08T01:21:23.999Z,1018.26
2017-04-08T01:22:06.702Z,1018.25
2017-04-08T01:22:47.268Z,1018.27
2017-04-08T01:23:27.980Z,1018.25
2017-04-08T01:24:08.664Z,1018.24
2017-04-08T01:24:49.415Z,1018.25
2017-04-08T01:25:30.070Z,1018.21
2017-04-08T01:26:10.721Z,1018.25
2017-04-08T01:26:53.460Z,1018.21
2017-04-08T01:27:34.191Z,1018.22
2017-04-08T01:28:15.861Z,1018.22
2017-04-08T01:28:56.516Z,1018.24
2017-04-08T01:29:37.121Z,1018.22
2017-04-08T01:30:17.782Z,1018.27
2017-04-08T01:30:58.486Z,1018.24
2017-04-08T01:31:39.227Z,1018.26
2017-04-08T01:32:19.794Z,1018.22
2017-04-08T01:33:00.483Z,1018.23
2017-04-08T01:33:42.213Z,1018.24
2017-04-08T01:34:22.879Z,1018.24
2017-04-08T01:35:03.488Z,1018.26
2017-04-08T01:35:51.087Z,1018.22
2017-04-08T01:36:31.791Z,1018.23
2017-04-08T01:37:12.374Z,1018.25
2017-04-08T01:37:53.043Z,1018.25
2017-04-08T01:38:33.737Z,1018.2
2017-04-08T01:39:14.311Z,1018.27
2017-04-08T01:39:55.977Z,1018.24
2017-04-08T01:40:36.622Z,1018.25
2017-04-08T01:41:17.200Z,1018.27
2017-04-08T01:41:57.923Z,1018.23
2017-04-08T01:42:39.603Z,1018.28
2017-04-08T01:43:20.194Z,1018.3
2017-04-08T01:44:01.950Z,1018.26
2017-04-08T01:44:42.588Z,1018.3
2017-04-08T01:45:23.178Z,1018.26
2017-04-08T01:46:03.890Z,1018.25
2017-04-08T01:46:59.188Z,1018.3
2017-04-08T01:47:39.814Z,1018.24
2017-04-08T01:48:20.510Z,1018.24
2017-04-08T01:49:02.170Z,1018.23
2017-04-08T01:49:42.744Z,1018.23
2017-04-08T01:50:25.422Z,1018.22
2017-04-08T01:51:06.069Z,1018.23
2017-04-08T01:51:46.831Z,1018.21
2017-04-08T01:52:27.477Z,1018.24
2017-04-08T01:53:09.277Z,1018.23
2017-04-08T01:53:50.963Z,1018.24
2017-04-08T01:54:31.711Z,1018.23
2017-04-08T01:55:12.473Z,1018.2
2017-04-08T01:55:53.029Z,1018.24
2017-04-08T01:56:33.723Z,1018.21
2017-04-08T01:57:14.402Z,1018.24
2017-04-08T01:57:57.115Z,1018.23
2017-04-08T01:58:37.698Z,1018.22
2017-04-08T01:59:18.374Z,1018.19
2017-04-08T01:59:59.088Z,1018.22
2017-04-08T02:00:39.727Z,1018.19
2017-04-08T02:01:20.294Z,1018.19
2017-04-08T02:02:02.006Z,1018.2
2017-04-08T02:02:44.745Z,1018.21
2017-04-08T02:03:25.408Z,1018.22
2017-04-08T02:04:06.021Z,1018.21
2017-04-08T02:04:46.673Z,1018.27
2017-04-08T02:05:27.356Z,1018.21
2017-04-08T02:06:09.043Z,1018.21
2017-04-08T02:06:49.632Z,1018.25
2017-04-08T02:07:31.334Z,1018.2
2017-04-08T02:08:12.027Z,1018.17
2017-04-08T02:08:53.709Z,1018.26
2017-04-08T02:09:34.288Z,1018.2
2017-04-08T02:10:14.963Z,1018.23
2017-04-08T02:10:55.616Z,1018.23
2017-04-08T02:11:36.270Z,1018.21
2017-04-08T02:12:16.921Z,1018.23
2017-04-08T02:12:57.574Z,1018.2
2017-04-08T02:13:38.236Z,1018.23
2017-04-08T02:14:19.935Z,1018.25
2017-04-08T02:15:01.837Z,1018.21
2017-04-08T02:15:47.199Z,1018.2
2017-04-08T02:16:28.877Z,1018.21
2017-04-08T02:17:09.632Z,1018.21
2017-04-08T02:17:50.297Z,1018.22
2017-04-08T02:18:31.049Z,1018.2
2017-04-08T02:19:11.715Z,1018.18
2017-04-08T02:19:52.272Z,1018.24
2017-04-08T02:20:32.960Z,1018.22
2017-04-08T02:21:14.685Z,1018.22
2017-04-08T02:21:56.464Z,1018.25
2017-04-08T02:22:37.067Z,1018.23
2017-04-08T02:23:18.754Z,1018.26
2017-04-08T02:24:01.491Z,1018.3
2017-04-08T02:24:43.161Z,1018.32
2017-04-08T02:25:23.784Z,1018.27
2017-04-08T02:26:04.529Z,1018.27
2017-04-08T02:26:45.222Z,1018.24
2017-04-08T02:27:25.886Z,1018.25
2017-04-08T02:28:06.443Z,1018.26
2017-04-08T02:28:49.189Z,1018.25
2017-04-08T02:29:29.885Z,1018.26
2017-04-08T02:30:10.542Z,1018.27
2017-04-08T02:30:51.312Z,1018.23
2017-04-08T02:31:32.048Z,1018.24
2017-04-08T02:32:12.700Z,1018.26
2017-04-08T02:32:59.194Z,1018.27
2017-04-08T02:33:40.867Z,1018.27
2017-04-08T02:34:22.542Z,1018.26
2017-04-08T02:35:03.113Z,1018.22
2017-04-08T02:35:43.857Z,1018.23
2017-04-08T02:36:24.605Z,1018.25
2017-04-08T02:37:05.188Z,1018.23
2017-04-08T02:37:50.520Z,1018.24
2017-04-08T02:38:31.280Z,1018.27
2017-04-08T02:39:11.867Z,1018.27
2017-04-08T02:39:52.582Z,1018.28
2017-04-08T02:40:33.336Z,1018.27
2017-04-08T02:41:18.708Z,1018.28
2017-04-08T02:41:59.455Z,1018.28
2017-04-08T02:42:40.111Z,1018.29
2017-04-08T02:43:20.864Z,1018.3
2017-04-08T02:44:03.565Z,1018.31
2017-04-08T02:44:44.320Z,1018.27
2017-04-08T02:45:24.973Z,1018.27
2017-04-08T02:46:06.650Z,1018.25
2017-04-08T02:46:48.325Z,1018.24
2017-04-08T02:47:28.979Z,1018.21
2017-04-08T02:48:09.738Z,1018.23
2017-04-08T02:48:50.391Z,1018.19
2017-04-08T02:49:31.146Z,1018.21
2017-04-08T02:50:11.900Z,1018.21
2017-04-08T02:50:53.579Z,1018.22
2017-04-08T02:51:34.330Z,1018.23
2017-04-08T02:52:15.086Z,1018.27
2017-04-08T02:52:56.763Z,1018.25
2017-04-08T02:53:38.544Z,1018.24
2017-04-08T02:54:20.221Z,1018.27
2017-04-08T02:55:00.780Z,1018.23
2017-04-08T02:55:41.518Z,1018.26
2017-04-08T02:56:22.282Z,1018.26
2017-04-08T02:57:03.956Z,1018.27
2017-04-08T02:57:45.641Z,1018.26
2017-04-08T02:58:27.312Z,1018.24
2017-04-08T02:59:07.885Z,1018.25
2017-04-08T02:59:48.549Z,1018.28
2017-04-08T03:00:29.270Z,1018.26
2017-04-08T03:01:10.027Z,1018.28
2017-04-08T03:01:50.785Z,1018.26
2017-04-08T03:02:32.354Z,1018.28
2017-04-08T03:03:13.111Z,1018.29
2017-04-08T03:03:53.869Z,1018.27
2017-04-08T03:04:36.571Z,1018.25
2017-04-08T03:05:17.137Z,1018.27
2017-04-08T03:06:04.560Z,1018.31
2017-04-08T03:06:45.286Z,1018.3
2017-04-08T03:07:26.617Z,1018.28
2017-04-08T03:08:07.413Z,1018.26
2017-04-08T03:08:48.403Z,1018.29
2017-04-08T03:09:28.974Z,1018.27
2017-04-08T03:10:09.675Z,1018.25
2017-04-08T03:10:50.434Z,1018.27
2017-04-08T03:11:36.717Z,1018.27
2017-04-08T03:12:17.473Z,1018.27
2017-04-08T03:13:00.174Z,1018.25
2017-04-08T03:13:42.875Z,1018.26
2017-04-08T03:14:23.632Z,1018.22
2017-04-08T03:15:04.387Z,1018.24
2017-04-08T03:15:45.141Z,1018.2
2017-04-08T03:16:25.896Z,1018.23
2017-04-08T03:17:06.652Z,1018.2
2017-04-08T03:17:47.408Z,1018.21
2017-04-08T03:18:29.083Z,1018.25
2017-04-08T03:19:09.841Z,1018.23
2017-04-08T03:19:55.201Z,1018.24
2017-04-08T03:20:36.982Z,1018.26
2017-04-08T03:21:24.298Z,1018.21
2017-04-08T03:22:05.052Z,1018.24
2017-04-08T03:22:45.801Z,1018.24
2017-04-08T03:23:27.481Z,1018.27
2017-04-08T03:24:08.234Z,1018.24
2017-04-08T03:24:48.988Z,1018.27
2017-04-08T03:25:29.555Z,1018.26
2017-04-08T03:26:10.314Z,1018.25
2017-04-08T03:26:52.995Z,1018.22
2017-04-08T03:27:33.560Z,1018.29
2017-04-08T03:28:14.292Z,1018.27
2017-04-08T03:28:55.998Z,1018.29
2017-04-08T03:29:36.585Z,1018.28
2017-04-08T03:30:17.283Z,1018.33
2017-04-08T03:30:57.941Z,1018.28
2017-04-08T03:31:38.698Z,1018.32
2017-04-08T03:32:19.449Z,1018.28
2017-04-08T03:33:00.208Z,1018.27
2017-04-08T03:33:41.981Z,1018.31
2017-04-08T03:34:22.739Z,1018.34
2017-04-08T03:35:03.314Z,1018.31
2017-04-08T03:35:44.049Z,1018.31
2017-04-08T03:36:24.800Z,1018.28
2017-04-08T03:37:05.386Z,1018.25
2017-04-08T03:37:52.070Z,1018.29
2017-04-08T03:38:33.827Z,1018.26
2017-04-08T03:39:14.408Z,1018.31
2017-04-08T03:39:57.094Z,1018.28
2017-04-08T03:40:37.726Z,1018.3
2017-04-08T03:41:18.295Z,1018.27
2017-04-08T03:41:58.993Z,1018.28
2017-04-08T03:42:39.767Z,1018.25
2017-04-08T03:43:20.545Z,1018.27
2017-04-08T03:44:01.109Z,1018.22
2017-04-08T03:44:41.809Z,1018.25
2017-04-08T03:45:24.550Z,1018.26
2017-04-08T03:46:06.337Z,1018.26
2017-04-08T03:46:47.222Z,1018.29
2017-04-08T03:47:27.899Z,1018.32
2017-04-08T03:48:10.654Z,1018.3
2017-04-08T03:48:51.400Z,1018.31
2017-04-08T03:49:31.981Z,1018.31
2017-04-08T03:50:13.710Z,1018.33
2017-04-08T03:50:54.458Z,1018.34
2017-04-08T03:51:36.219Z,1018.32
2017-04-08T03:52:18.943Z,1018.33
2017-04-08T03:53:00.729Z,1018.33
2017-04-08T03:53:41.474Z,1018.34
2017-04-08T03:54:22.211Z,1018.35
2017-04-08T03:55:02.976Z,1018.32
2017-04-08T03:55:45.831Z,1018.32
2017-04-08T03:56:26.571Z,1018.33
2017-04-08T03:57:08.350Z,1018.33
2017-04-08T03:57:49.107Z,1018.31
2017-04-08T03:58:30.784Z,1018.34
2017-04-08T03:59:13.490Z,1018.31
2017-04-08T03:59:56.185Z,1018.34
2017-04-08T04:00:37.869Z,1018.34
2017-04-08T04:01:20.567Z,1018.33
2017-04-08T04:02:03.298Z,1018.33
2017-04-08T04:02:44.027Z,1018.32
2017-04-08T04:03:25.803Z,1018.34
2017-04-08T04:04:08.504Z,1018.36
2017-04-08T04:04:49.260Z,1018.35
2017-04-08T04:05:30.015Z,1018.35
2017-04-08T04:06:11.698Z,1018.38
2017-04-08T04:06:53.573Z,1018.35
2017-04-08T04:07:35.352Z,1018.4
2017-04-08T04:08:18.069Z,1018.41
2017-04-08T04:08:59.844Z,1018.41
2017-04-08T04:09:40.588Z,1018.42
2017-04-08T04:10:21.150Z,1018.4
2017-04-08T04:11:02.873Z,1018.41
2017-04-08T04:11:43.569Z,1018.41
2017-04-08T04:12:24.329Z,1018.4
2017-04-08T04:13:04.924Z,1018.42
2017-04-08T04:13:45.774Z,1018.4
2017-04-08T04:14:26.495Z,1018.38
2017-04-08T04:15:07.247Z,1018.37
2017-04-08T04:15:47.865Z,1018.42
2017-04-08T04:16:30.626Z,1018.43
2017-04-08T04:17:16.284Z,1018.46
2017-04-08T04:17:56.845Z,1018.47
2017-04-08T04:18:38.622Z,1018.48
2017-04-08T04:19:20.384Z,1018.45
2017-04-08T04:20:00.954Z,1018.51
2017-04-08T04:20:41.691Z,1018.45
2017-04-08T04:21:22.448Z,1018.43
2017-04-08T04:22:03.200Z,1018.42
2017-04-08T04:22:43.990Z,1018.42
2017-04-08T04:23:24.711Z,1018.42
2017-04-08T04:24:05.478Z,1018.37
2017-04-08T04:24:47.241Z,1018.38
2017-04-08T04:25:30.056Z,1018.38
2017-04-08T04:26:10.805Z,1018.37
2017-04-08T04:26:53.612Z,1018.4
2017-04-08T04:27:34.360Z,1018.41
2017-04-08T04:28:15.122Z,1018.4
2017-04-08T04:29:00.597Z,1018.41
2017-04-08T04:29:46.063Z,1018.4
2017-04-08T04:30:26.802Z,1018.41
2017-04-08T04:31:07.385Z,1018.43
2017-04-08T04:31:48.075Z,1018.43
2017-04-08T04:32:28.874Z,1018.44
2017-04-08T04:33:10.646Z,1018.47
2017-04-08T04:33:51.247Z,1018.46
2017-04-08T04:34:32.017Z,1018.46
2017-04-08T04:35:13.739Z,1018.45
2017-04-08T04:35:56.530Z,1018.46
2017-04-08T04:36:37.110Z,1018.47
2017-04-08T04:37:17.831Z,1018.45
2017-04-08T04:37:59.618Z,1018.46
2017-04-08T04:38:40.180Z,1018.48
2017-04-08T04:39:21.972Z,1018.47
2017-04-08T04:40:07.305Z,1018.51
2017-04-08T04:40:47.875Z,1018.49
2017-04-08T04:41:28.613Z,1018.53
2017-04-08T04:42:09.365Z,1018.56
2017-04-08T04:42:49.936Z,1018.52
2017-04-08T04:43:31.728Z,1018.55
2017-04-08T04:44:17.266Z,1018.57
2017-04-08T04:44:57.836Z,1018.54
2017-04-08T04:45:38.582Z,1018.58
2017-04-08T04:46:19.326Z,1018.57
2017-04-08T04:46:59.886Z,1018.61
2017-04-08T04:47:41.682Z,1018.58
2017-04-08T04:48:23.437Z,1018.6
2017-04-08T04:49:04.024Z,1018.59
2017-04-08T04:49:46.803Z,1018.61
2017-04-08T04:50:27.547Z,1018.57
2017-04-08T04:51:08.302Z,1018.56
2017-04-08T04:51:49.060Z,1018.54
2017-04-08T04:52:29.813Z,1018.58
2017-04-08T04:53:10.568Z,1018.53
2017-04-08T04:53:51.323Z,1018.58
2017-04-08T04:54:32.079Z,1018.57
2017-04-08T04:55:12.847Z,1018.6
2017-04-08T04:55:53.590Z,1018.59
2017-04-08T04:56:36.291Z,1018.58
2017-04-08T04:57:18.069Z,1018.58
2017-04-08T04:57:58.829Z,1018.6
2017-04-08T04:58:39.583Z,1018.64
2017-04-08T04:59:20.338Z,1018.63
2017-04-08T05:00:02.121Z,1018.61
2017-04-08T05:00:42.873Z,1018.6
2017-04-08T05:01:23.630Z,1018.62
2017-04-08T05:02:04.388Z,1018.65
2017-04-08T05:02:45.138Z,1018.63
2017-04-08T05:03:25.897Z,1018.62
2017-04-08T05:04:06.649Z,1018.64
2017-04-08T05:04:47.403Z,1018.64
2017-04-08T05:05:27.963Z,1018.67
2017-04-08T05:06:08.680Z,1018.66
2017-04-08T05:06:50.286Z,1018.66
2017-04-08T05:07:32.992Z,1018.64
2017-04-08T05:08:13.566Z,1018.68
2017-04-08T05:08:55.170Z,1018.65
2017-04-08T05:09:41.600Z,1018.62
2017-04-08T05:10:23.278Z,1018.67
2017-04-08T05:11:03.851Z,1018.67
2017-04-08T05:11:45.510Z,1018.67
2017-04-08T05:12:27.181Z,1018.68
2017-04-08T05:13:07.769Z,1018.71
2017-04-08T05:13:49.415Z,1018.73
2017-04-08T05:14:32.005Z,1018.75
2017-04-08T05:15:12.576Z,1018.76
2017-04-08T05:15:54.237Z,1018.76
2017-04-08T05:16:36.943Z,1018.78
2017-04-08T05:17:18.623Z,1018.79
2017-04-08T05:17:59.299Z,1018.79
2017-04-08T05:18:39.927Z,1018.77
2017-04-08T05:19:21.596Z,1018.75
2017-04-08T05:20:02.254Z,1018.78
2017-04-08T05:20:43.925Z,1018.78
2017-04-08T05:21:24.577Z,1018.79
2017-04-08T05:22:05.238Z,1018.8
2017-04-08T05:22:45.891Z,1018.82
2017-04-08T05:23:26.537Z,1018.8
2017-04-08T05:24:07.195Z,1018.89
2017-04-08T05:24:47.842Z,1018.83
2017-04-08T05:25:28.438Z,1018.9
2017-04-08T05:26:11.081Z,1018.87
2017-04-08T05:26:51.756Z,1018.95
2017-04-08T05:27:38.239Z,1018.92
2017-04-08T05:28:18.878Z,1018.96
2017-04-08T05:29:01.448Z,1018.95
2017-04-08T05:29:44.085Z,1018.93
2017-04-08T05:30:24.740Z,1018.87
2017-04-08T05:31:06.418Z,1018.91
2017-04-08T05:31:47.076Z,1018.92
2017-04-08T05:32:28.751Z,1018.89
2017-04-08T05:33:09.406Z,1018.92
2017-04-08T05:33:52.103Z,1018.93
2017-04-08T05:34:32.860Z,1018.96
2017-04-08T05:35:13.511Z,1018.95
2017-04-08T05:35:56.110Z,1018.94
2017-04-08T05:36:37.788Z,1018.95
2017-04-08T05:37:18.440Z,1018.96
2017-04-08T05:38:09.746Z,1018.95
2017-04-08T05:39:01.249Z,1018.96
2017-04-08T05:39:42.930Z,1019
2017-04-08T05:40:23.503Z,1018.98
2017-04-08T05:41:04.128Z,1018.95
2017-04-08T05:41:45.808Z,1018.94
2017-04-08T05:42:26.382Z,1018.97
2017-04-08T05:43:11.924Z,1018.98
2017-04-08T05:43:52.617Z,1019.02
2017-04-08T05:44:33.191Z,1019.04
2017-04-08T05:45:15.825Z,1019.02
2017-04-08T05:45:57.502Z,1019.01
2017-04-08T05:46:38.174Z,1019.03
2017-04-08T05:47:18.815Z,1019.03
2017-04-08T05:47:59.471Z,1019.03
2017-04-08T05:48:40.142Z,1019.01
2017-04-08T05:49:21.799Z,1019.02
2017-04-08T05:50:04.540Z,1018.98
2017-04-08T05:50:49.757Z,1018.98
2017-04-08T05:51:30.347Z,1019.03
2017-04-08T05:52:11.017Z,1018.99
2017-04-08T05:52:51.614Z,1019.02
2017-04-08T05:53:32.279Z,1019.01
2017-04-08T05:54:12.859Z,1019.01
2017-04-08T05:54:53.569Z,1019.02
2017-04-08T05:55:34.228Z,1019
2017-04-08T05:56:15.918Z,1018.99
2017-04-08T05:56:56.727Z,1018.99
2017-04-08T05:57:37.422Z,1018.99
2017-04-08T05:58:18.057Z,1019
2017-04-08T05:58:59.744Z,1019
2017-04-08T05:59:42.444Z,1018.99
2017-04-08T06:00:23.096Z,1018.96
2017-04-08T06:01:03.861Z,1019.02
2017-04-08T06:01:44.459Z,1019.01
2017-04-08T06:02:25.135Z,1019.01
2017-04-08T06:03:07.834Z,1019
2017-04-08T06:03:49.545Z,1019
2017-04-08T06:04:30.109Z,1019.01
2017-04-08T06:05:11.770Z,1019.02
2017-04-08T06:05:53.446Z,1019.01
2017-04-08T06:06:36.044Z,1019
2017-04-08T06:07:16.606Z,1018.98
2017-04-08T06:07:57.306Z,1018.99
2017-04-08T06:08:39.937Z,1018.99
2017-04-08T06:09:21.625Z,1018.96
2017-04-08T06:10:02.198Z,1018.96
2017-04-08T06:10:44.994Z,1018.94
2017-04-08T06:11:25.627Z,1018.96
2017-04-08T06:12:06.285Z,1018.96
2017-04-08T06:12:46.850Z,1018.95
2017-04-08T06:13:27.532Z,1018.99
2017-04-08T06:14:08.132Z,1019.02
2017-04-08T06:14:48.796Z,1018.99
2017-04-08T06:15:29.347Z,1018.97
2017-04-08T06:16:11.025Z,1019
2017-04-08T06:16:51.678Z,1019.02
2017-04-08T06:17:32.276Z,1019.05
2017-04-08T06:18:12.873Z,1019.05
2017-04-08T06:18:55.584Z,1019.05
2017-04-08T06:19:36.140Z,1019.07
2017-04-08T06:20:16.770Z,1019.07
2017-04-08T06:20:57.433Z,1019.07
2017-04-08T06:21:38.042Z,1019.06
2017-04-08T06:22:19.730Z,1019.11
2017-04-08T06:23:05.944Z,1019.11
2017-04-08T06:23:51.217Z,1019.08
2017-04-08T06:24:31.854Z,1019.14
2017-04-08T06:25:12.571Z,1019.13
2017-04-08T06:25:53.267Z,1019.11
2017-04-08T06:26:33.863Z,1019.16
2017-04-08T06:27:14.473Z,1019.14
2017-04-08T06:27:55.126Z,1019.17
2017-04-08T06:28:35.694Z,1019.15
2017-04-08T06:29:22.995Z,1019.18
2017-04-08T06:30:03.636Z,1019.16
2017-04-08T06:30:44.202Z,1019.15
2017-04-08T06:31:24.941Z,1019.14
2017-04-08T06:32:06.620Z,1019.17
2017-04-08T06:32:47.208Z,1019.15
2017-04-08T06:33:27.942Z,1019.15
2017-04-08T06:34:08.579Z,1019.14
2017-04-08T06:34:49.350Z,1019.16
2017-04-08T06:35:35.008Z,1019.14
2017-04-08T06:36:15.655Z,1019.14
2017-04-08T06:36:56.307Z,1019.11
2017-04-08T06:37:36.987Z,1019.12
2017-04-08T06:38:17.631Z,1019.15
2017-04-08T06:39:02.971Z,1019.12
2017-04-08T06:39:43.629Z,1019.14
2017-04-08T06:40:25.306Z,1019.14
2017-04-08T06:41:06.066Z,1019.16
2017-04-08T06:41:46.735Z,1019.13
2017-04-08T06:42:29.416Z,1019.14
2017-04-08T06:43:14.986Z,1019.14
2017-04-08T06:43:55.636Z,1019.14
2017-04-08T06:44:41.006Z,1019.16
2017-04-08T06:45:22.679Z,1019.19
2017-04-08T06:46:04.360Z,1019.17
2017-04-08T06:46:44.975Z,1019.15
2017-04-08T06:47:26.584Z,1019.19
2017-04-08T06:48:11.750Z,1019.19
2017-04-08T06:48:52.335Z,1019.19
2017-04-08T06:49:33.063Z,1019.18
2017-04-08T06:50:20.775Z,1019.2
2017-04-08T06:51:02.449Z,1019.22
2017-04-08T06:51:45.508Z,1019.22
2017-04-08T06:52:27.338Z,1019.21
2017-04-08T06:53:14.751Z,1019.23
2017-04-08T06:53:55.401Z,1019.19
2017-04-08T06:54:37.083Z,1019.22
2017-04-08T06:55:17.733Z,1019.24
2017-04-08T06:55:59.409Z,1019.23
2017-04-08T06:56:42.108Z,1019.2
2017-04-08T06:57:22.764Z,1019.23
2017-04-08T06:58:03.415Z,1019.23
2017-04-08T06:58:45.093Z,1019.23
2017-04-08T06:59:26.769Z,1019.2
2017-04-08T07:00:08.445Z,1019.21
2017-04-08T07:00:49.023Z,1019.19
2017-04-08T07:01:29.642Z,1019.23
2017-04-08T07:02:11.327Z,1019.2
2017-04-08T07:02:51.889Z,1019.21
2017-04-08T07:03:33.556Z,1019.24
2017-04-08T07:04:20.250Z,1019.22
2017-04-08T07:05:00.816Z,1019.2
2017-04-08T07:05:41.455Z,1019.22
2017-04-08T07:06:22.105Z,1019.19
2017-04-08T07:07:02.674Z,1019.24
2017-04-08T07:07:48.101Z,1019.23
2017-04-08T07:08:28.778Z,1019.25
2017-04-08T07:09:09.426Z,1019.22
2017-04-08T07:09:50.005Z,1019.25
2017-04-08T07:10:30.680Z,1019.22
2017-04-08T07:11:11.390Z,1019.26
2017-04-08T07:11:52.040Z,1019.25
2017-04-08T07:12:32.693Z,1019.27
2017-04-08T07:13:18.261Z,1019.26
2017-04-08T07:14:04.753Z,1019.26
2017-04-08T07:14:46.429Z,1019.29
2017-04-08T07:15:27.083Z,1019.31
2017-04-08T07:16:07.733Z,1019.31
2017-04-08T07:16:53.310Z,1019.34
2017-04-08T07:17:34.981Z,1019.31
2017-04-08T07:18:22.288Z,1019.31
2017-04-08T07:19:02.942Z,1019.35
2017-04-08T07:19:49.228Z,1019.35
2017-04-08T07:20:29.879Z,1019.35
2017-04-08T07:21:10.457Z,1019.31
2017-04-08T07:21:53.085Z,1019.33
2017-04-08T07:22:33.848Z,1019.3
2017-04-08T07:23:14.540Z,1019.32
2017-04-08T07:23:55.164Z,1019.32
2017-04-08T07:24:40.654Z,1019.33
2017-04-08T07:25:21.327Z,1019.31
2017-04-08T07:26:01.960Z,1019.33
2017-04-08T07:26:42.552Z,1019.32
2017-04-08T07:27:24.295Z,1019.34
2017-04-08T07:28:04.952Z,1019.34
2017-04-08T07:28:51.253Z,1019.32
2017-04-08T07:29:31.844Z,1019.32
2017-04-08T07:30:17.106Z,1019.32
2017-04-08T07:30:57.812Z,1019.31
2017-04-08T07:31:38.374Z,1019.29
2017-04-08T07:32:19.095Z,1019.29
2017-04-08T07:33:00.786Z,1019.33
2017-04-08T07:33:42.566Z,1019.3
2017-04-08T07:34:23.161Z,1019.32
2017-04-08T07:35:03.963Z,1019.33
2017-04-08T07:35:46.694Z,1019.29
2017-04-08T07:36:27.424Z,1019.35
2017-04-08T07:37:08.077Z,1019.32
2017-04-08T07:37:49.848Z,1019.33
2017-04-08T07:38:31.537Z,1019.34
2017-04-08T07:39:12.179Z,1019.35
2017-04-08T07:39:59.494Z,1019.35
2017-04-08T07:40:41.173Z,1019.36
2017-04-08T07:41:23.883Z,1019.38
2017-04-08T07:42:04.475Z,1019.38
2017-04-08T07:42:46.252Z,1019.39
2017-04-08T07:43:27.068Z,1019.35
2017-04-08T07:44:07.649Z,1019.34
2017-04-08T07:44:50.311Z,1019.35
2017-04-08T07:45:37.725Z,1019.41
2017-04-08T07:46:18.377Z,1019.37
2017-04-08T07:47:00.058Z,1019.37
2017-04-08T07:47:41.758Z,1019.42
2017-04-08T07:48:22.612Z,1019.41
2017-04-08T07:49:08.269Z,1019.39
2017-04-08T07:49:49.082Z,1019.39
2017-04-08T07:50:44.317Z,1019.36
2017-04-08T07:51:24.882Z,1019.35
2017-04-08T07:52:05.571Z,1019.38
2017-04-08T07:52:46.313Z,1019.36
2017-04-08T07:53:27.033Z,1019.36
2017-04-08T07:54:07.602Z,1019.33
2017-04-08T07:54:48.297Z,1019.41
2017-04-08T07:55:30.017Z,1019.39
2017-04-08T07:56:12.721Z,1019.42
2017-04-08T07:56:54.402Z,1019.4
2017-04-08T07:57:49.790Z,1019.42
2017-04-08T07:58:43.273Z,1019.42
2017-04-08T07:59:24.920Z,1019.4
2017-04-08T08:00:07.629Z,1019.43
2017-04-08T08:00:48.277Z,1019.42
2017-04-08T08:33:47.373Z,1019.51
2017-04-08T08:34:27.972Z,1019.55
2017-04-08T08:35:08.669Z,1019.53
2017-04-08T08:35:49.324Z,1019.51
2017-04-08T08:36:29.900Z,1019.54
2017-04-08T08:37:11.669Z,1019.55
2017-04-08T08:37:53.437Z,1019.52
2017-04-08T08:38:34.003Z,1019.52
2017-04-08T08:39:19.452Z,1019.53
2017-04-08T08:40:00.107Z,1019.55
2017-04-08T08:40:40.683Z,1019.56
2017-04-08T08:41:23.353Z,1019.56
2017-04-08T08:42:14.979Z,1019.56
2017-04-08T08:43:01.447Z,1019.56
2017-04-08T08:43:42.119Z,1019.55
2017-04-08T08:44:22.881Z,1019.59
2017-04-08T08:45:04.737Z,1019.63
2017-04-08T08:45:46.413Z,1019.58
2017-04-08T08:46:29.225Z,1019.61
2017-04-08T08:47:15.532Z,1019.6
2017-04-08T08:47:57.184Z,1019.6
2017-04-08T08:48:39.887Z,1019.63
2017-04-08T08:49:20.578Z,1019.59
2017-04-08T08:50:05.990Z,1019.58
2017-04-08T08:50:53.526Z,1019.57
2017-04-08T09:00:21.868Z,1019.62
2017-04-08T09:01:02.617Z,1019.61
2017-04-08T09:01:43.379Z,1019.62
2017-04-08T09:02:24.128Z,1019.61
2017-04-08T09:03:04.883Z,1019.61
2017-04-08T09:03:45.539Z,1019.61
2017-04-08T09:04:31.925Z,1019.66
2017-04-08T09:05:12.683Z,1019.63
2017-04-08T09:05:53.437Z,1019.62